B51 EFRO-EFRO

Flight info

Callsign B51
Flight time 0h 23m
Altitude 4500
Route HEINU ROTA TC
Aircraft HAWK/M-SDGIRY/C

Departure

Time 2026-05-01 11:10
Airport Rovaniemi Airport (EFRO)

Arrival

Time 2026-05-01 11:34
Airport Rovaniemi Airport (EFRO)
Time Latitude Longitude Altitude Speed Heading
2026-05-01 10:52 66.56787 25.82806 652 ft 0 kts 307°
2026-05-01 11:02 66.56787 25.82805 651 ft 0 kts 307°
2026-05-01 11:03 66.56799 25.82777 654 ft 3 kts 344°
2026-05-01 11:03 66.56847 25.82844 654 ft 12 kts 43°
2026-05-01 11:03 66.56865 25.83036 648 ft 13 kts 58°
2026-05-01 11:03 66.56930 25.83190 644 ft 11 kts 65°
2026-05-01 11:04 66.56905 25.83298 641 ft 6 kts 162°
2026-05-01 11:04 66.56904 25.83299 641 ft 0 kts 163°
2026-05-01 11:08 66.56898 25.83303 641 ft 4 kts 165°
2026-05-01 11:09 66.56854 25.83314 641 ft 7 kts 176°
2026-05-01 11:09 66.56795 25.83346 640 ft 11 kts 173°
2026-05-01 11:09 66.56704 25.83380 638 ft 15 kts 169°
2026-05-01 11:10 66.56673 25.83410 638 ft 0 kts 223°
2026-05-01 11:10 66.56408 25.82893 640 ft 97 kts 215°
2026-05-01 11:10 66.55621 25.81455 780 ft 175 kts 212°
2026-05-01 11:10 66.54255 25.80293 1300 ft 254 kts 171°
2026-05-01 11:11 66.52753 25.82811 1627 ft 267 kts 121°
2026-05-01 11:11 66.52271 25.87323 1341 ft 275 kts 92°
2026-05-01 11:11 66.52306 25.92061 1326 ft 268 kts 79°
2026-05-01 11:11 66.52516 25.96622 1311 ft 260 kts 92°
2026-05-01 11:12 66.52463 26.01120 1292 ft 258 kts 100°
2026-05-01 11:12 66.51890 26.05365 1258 ft 256 kts 108°
2026-05-01 11:12 66.51407 26.09700 1105 ft 259 kts 106°
2026-05-01 11:12 66.50614 26.13598 1642 ft 245 kts 130°
2026-05-01 11:13 66.49479 26.16788 3031 ft 250 kts 135°
2026-05-01 11:13 66.48088 26.19700 3502 ft 270 kts 164°
2026-05-01 11:13 66.46352 26.18623 3750 ft 264 kts 203°
2026-05-01 11:13 66.44655 26.17063 4047 ft 247 kts 202°
2026-05-01 11:14 66.43040 26.15707 4021 ft 246 kts 200°
2026-05-01 11:14 66.41361 26.14338 4057 ft 259 kts 199°
2026-05-01 11:14 66.39567 26.14557 3993 ft 266 kts 158°
2026-05-01 11:14 66.38120 26.17436 4131 ft 278 kts 129°
2026-05-01 11:15 66.37471 26.21985 4201 ft 282 kts 92°
2026-05-01 11:15 66.37878 26.26648 3964 ft 281 kts 59°
2026-05-01 11:15 66.39177 26.30083 3987 ft 269 kts 28°
2026-05-01 11:15 66.40920 26.31121 3992 ft 257 kts 348°
2026-05-01 11:16 66.42419 26.29051 4147 ft 247 kts 306°
2026-05-01 11:16 66.42884 26.25180 4515 ft 234 kts 267°
2026-05-01 11:16 66.42269 26.21359 4904 ft 164 kts 239°
2026-05-01 11:16 66.42339 26.22103 7428 ft 127 kts 60°
2026-05-01 11:17 66.41987 26.21132 3287 ft 276 kts 238°
2026-05-01 11:17 66.41845 26.21212 671 ft 281 kts 51°
2026-05-01 11:17 66.42855 26.25402 2036 ft 295 kts 68°
2026-05-01 11:17 66.43042 26.30556 2160 ft 298 kts 93°
2026-05-01 11:18 66.41996 26.34178 2468 ft 276 kts 180°
2026-05-01 11:18 66.41105 26.31148 2511 ft 268 kts 302°
2026-05-01 11:18 66.42784 26.31339 2416 ft 274 kts 27°
2026-05-01 11:18 66.44272 26.34014 2786 ft 242 kts 27°
2026-05-01 11:19 66.45643 26.36337 2811 ft 244 kts 38°
2026-05-01 11:19 66.46866 26.39943 3282 ft 285 kts 52°
2026-05-01 11:19 66.48007 26.44079 3269 ft 290 kts 57°
2026-05-01 11:19 66.48971 26.47668 3029 ft 227 kts 56°
2026-05-01 11:20 66.49861 26.51246 4160 ft 261 kts 57°
2026-05-01 11:20 66.50757 26.55042 4180 ft 245 kts 58°
2026-05-01 11:20 66.51572 26.58680 4116 ft 234 kts 58°
2026-05-01 11:20 66.52439 26.61945 4077 ft 219 kts 39°
2026-05-01 11:21 66.53700 26.63621 4007 ft 199 kts 11°
2026-05-01 11:21 66.54950 26.64521 4009 ft 169 kts 11°
2026-05-01 11:21 66.56021 26.65388 3997 ft 153 kts 12°
2026-05-01 11:21 66.56969 26.66217 3898 ft 139 kts 13°
2026-05-01 11:22 66.57839 26.67046 3642 ft 134 kts 14°
2026-05-01 11:22 66.58753 26.67794 3087 ft 138 kts 22°
2026-05-01 11:22 66.59884 26.68480 1744 ft 214 kts 335°
2026-05-01 11:22 66.60042 26.65057 2259 ft 260 kts 259°
2026-05-01 11:23 66.58434 26.62622 1657 ft 302 kts 233°
2026-05-01 11:23 66.58490 26.57653 885 ft 293 kts 277°
2026-05-01 11:23 66.58713 26.52795 857 ft 265 kts 272°
2026-05-01 11:23 66.58786 26.48936 1129 ft 206 kts 214°
2026-05-01 11:24 66.57603 26.47190 2204 ft 218 kts 213°
2026-05-01 11:24 66.56256 26.45062 1997 ft 255 kts 217°
2026-05-01 11:24 66.55991 26.44960 3590 ft 229 kts 287°
2026-05-01 11:25 66.56081 26.40719 2881 ft 251 kts 251°
2026-05-01 11:25 66.53573 26.35216 2621 ft 254 kts 209°
2026-05-01 11:25 66.52017 26.32990 2128 ft 255 kts 213°
2026-05-01 11:26 66.50600 26.30409 1709 ft 249 kts 233°
2026-05-01 11:26 66.50068 26.22818 1676 ft 216 kts 273°
2026-05-01 11:26 66.50198 26.18870 1305 ft 243 kts 276°
2026-05-01 11:27 66.50579 26.14713 1279 ft 244 kts 282°
2026-05-01 11:27 66.51143 26.10778 1191 ft 238 kts 295°
2026-05-01 11:27 66.52027 26.07425 1439 ft 224 kts 304°
2026-05-01 11:27 66.52995 26.04406 1425 ft 223 kts 308°
2026-05-01 11:28 66.54037 26.01847 1839 ft 202 kts 313°
2026-05-01 11:28 66.55124 25.99575 1876 ft 210 kts 318°
2026-05-01 11:28 66.56342 25.97187 1778 ft 232 kts 319°
2026-05-01 11:29 66.58899 25.92743 2109 ft 221 kts 318°
2026-05-01 11:29 66.59717 25.89596 1635 ft 207 kts 258°
2026-05-01 11:29 66.57639 25.85277 696 ft 173 kts 218°
2026-05-01 11:30 66.56786 25.83629 640 ft 135 kts 219°
2026-05-01 11:30 66.55999 25.82096 831 ft 175 kts 219°
2026-05-01 11:30 66.54813 25.79747 1533 ft 248 kts 202°
2026-05-01 11:30 66.53590 25.82243 1481 ft 246 kts 134°
2026-05-01 11:31 66.53706 25.85599 1433 ft 229 kts 39°
2026-05-01 11:31 66.54925 25.88363 1283 ft 240 kts 39°
2026-05-01 11:31 66.56185 25.91088 1070 ft 241 kts 37°
2026-05-01 11:31 66.57434 25.93698 1237 ft 229 kts 38°
2026-05-01 11:32 66.58816 25.94557 1492 ft 194 kts 337°
2026-05-01 11:32 66.59639 25.92219 1343 ft 181 kts 290°
2026-05-01 11:32 66.59721 25.89317 1169 ft 153 kts 239°
2026-05-01 11:32 66.58976 25.87765 1003 ft 135 kts 217°
2026-05-01 11:33 66.58269 25.86461 804 ft 121 kts 220°
2026-05-01 11:33 66.57604 25.85180 690 ft 119 kts 219°
2026-05-01 11:33 66.57011 25.84043 629 ft 93 kts 218°
2026-05-01 11:33 66.56554 25.83174 641 ft 72 kts 217°
2026-05-01 11:34 66.56331 25.82743 646 ft 27 kts 217°
2026-05-01 11:34 66.56294 25.82590 646 ft 7 kts 297°
2026-05-01 11:34 66.56316 25.82525 646 ft 4 kts 288°
2026-05-01 11:34 66.56331 25.82450 645 ft 7 kts 294°
2026-05-01 11:35 66.56358 25.82321 645 ft 8 kts 313°
2026-05-01 11:35 66.56396 25.82260 648 ft 10 kts 345°
2026-05-01 11:35 66.56509 25.82383 653 ft 26 kts 37°
2026-05-01 11:35 66.56661 25.82679 655 ft 25 kts 31°
2026-05-01 11:36 66.56747 25.82793 657 ft 0 kts 313°
2026-05-01 11:36 66.56759 25.82748 660 ft 3 kts 306°
2026-05-01 11:36 66.56760 25.82745 660 ft 0 kts 306°